Time;durP1;ratioP1;P1;durP2;ratioP2;P2;SDS_P1;SDS_P2;PMS_P1;PMS_P2;Temp;Humidity;BMP_temperature;BMP_pressure;BME280_temperature;BME280_humidity;BME280_pressure;Samples;Min_cycle;Max_cycle;Signal;HPM_P1;HPM_P2
2021/02/14 00:02:24;;;;;;;;;17.25;16.00;;;;;-4.41;63.51;102321.09;3725212;37;20749;-54
2021/02/14 00:04:50;;;;;;;;;13.50;11.00;;;;;-4.39;63.55;102320.12;3725041;38;20772;-55
2021/02/14 00:07:17;;;;;;;;;16.50;12.25;;;;;-4.43;63.37;102322.91;3725166;37;21737;-55
2021/02/14 00:09:43;;;;;;;;;11.25;10.50;;;;;-4.48;63.39;102316.88;3725196;37;21749;-54
2021/02/14 00:12:10;;;;;;;;;18.50;15.25;;;;;-4.51;63.41;102324.91;3725169;37;21704;-55
2021/02/14 00:14:36;;;;;;;;;16.50;10.50;;;;;-4.56;63.22;102303.03;3725168;37;21755;-55
2021/02/14 00:17:02;;;;;;;;;14.00;11.50;;;;;-4.51;63.17;102303.75;3725422;38;21745;-55
2021/02/14 00:19:28;;;;;;;;;7.00;6.00;;;;;-4.49;63.23;102301.94;3725305;38;21734;-56
2021/02/14 00:21:55;;;;;;;;;17.00;13.00;;;;;-4.52;63.31;102309.97;3725418;38;21614;-57
2021/02/14 00:24:23;;;;;;;;;14.75;13.75;;;;;-4.49;63.84;102300.16;3725365;37;21767;-55
2021/02/14 00:26:53;;;;;;;;;14.00;14.00;;;;;-4.47;63.38;102308.06;3725198;38;21727;-54
2021/02/14 00:29:21;;;;;;;;;16.50;16.00;;;;;-4.49;64.17;102299.31;3725302;37;21741;-56
2021/02/14 00:31:49;;;;;;;;;18.00;15.50;;;;;-4.44;63.78;102295.63;3725331;38;21723;-55
2021/02/14 00:34:17;;;;;;;;;20.75;16.25;;;;;-4.34;63.52;102302.38;3725061;38;21692;-57
2021/02/14 00:36:43;;;;;;;;;16.25;15.25;;;;;-4.36;63.59;102296.25;3725511;38;21738;-55
2021/02/14 00:39:09;;;;;;;;;16.00;13.75;;;;;-4.27;63.52;102299.53;3725317;37;21711;-55
2021/02/14 00:41:35;;;;;;;;;21.50;14.00;;;;;-4.22;63.81;102294.97;3725257;37;21728;-55
2021/02/14 00:44:02;;;;;;;;;25.75;20.00;;;;;-4.30;64.12;102295.22;3725353;38;21720;-54
2021/02/14 00:46:29;;;;;;;;;18.25;16.00;;;;;-4.29;63.82;102294.31;3725271;37;21719;-56
2021/02/14 00:48:55;;;;;;;;;17.50;13.50;;;;;-4.24;63.87;102291.50;3725477;38;21705;-56
2021/02/14 00:51:21;;;;;;;;;13.25;10.00;;;;;-4.11;64.00;102300.78;3725290;37;21673;-55
2021/02/14 00:53:47;;;;;;;;;15.00;12.00;;;;;-4.12;63.89;102291.13;3725376;38;21662;-56
2021/02/14 00:56:14;;;;;;;;;15.25;12.50;;;;;-4.20;63.96;102299.31;3725361;38;21295;-54
2021/02/14 00:58:40;;;;;;;;;19.75;15.25;;;;;-4.18;64.50;102294.84;3725008;37;21300;-56
2021/02/14 01:01:06;;;;;;;;;9.50;7.50;;;;;-4.18;64.66;102294.84;3724761;37;21318;-56
2021/02/14 01:03:32;;;;;;;;;14.00;11.00;;;;;-4.19;64.17;102300.19;3724732;37;21282;-56
2021/02/14 01:05:59;;;;;;;;;19.75;17.75;;;;;-4.16;64.67;102292.97;3725203;37;21329;-54
2021/02/14 01:08:25;;;;;;;;;12.50;10.75;;;;;-4.21;64.79;102289.66;3725598;37;21298;-54
2021/02/14 01:10:51;;;;;;;;;17.00;11.75;;;;;-4.18;64.70;102292.19;3725351;37;21277;-55
2021/02/14 01:13:17;;;;;;;;;13.00;13.00;;;;;-4.19;64.92;102300.19;3725404;38;21302;-54
2021/02/14 01:15:43;;;;;;;;;19.75;16.75;;;;;-4.19;64.80;102289.59;3725451;37;21261;-56
2021/02/14 01:18:09;;;;;;;;;13.50;11.50;;;;;-4.22;65.06;102287.06;3725363;38;21292;-56
2021/02/14 01:20:36;;;;;;;;;23.25;18.25;;;;;-4.20;65.13;102280.81;3725429;37;21247;-56
2021/02/14 01:23:02;;;;;;;;;13.75;10.50;;;;;-4.25;65.60;102290.66;3725238;38;21283;-54
2021/02/14 01:25:28;;;;;;;;;15.00;10.00;;;;;-4.19;65.48;102287.81;3725269;37;21245;-54
2021/02/14 01:27:54;;;;;;;;;12.50;11.00;;;;;-4.15;65.57;102285.91;3725280;38;21244;-56
2021/02/14 01:30:21;;;;;;;;;10.25;7.00;;;;;-4.08;65.56;102282.16;3725114;37;21242;-56
2021/02/14 01:32:47;;;;;;;;;13.50;13.50;;;;;-4.15;65.60;102272.69;3725358;38;21230;-56
2021/02/14 01:35:14;;;;;;;;;19.25;17.00;;;;;-4.17;66.05;102274.56;3725211;37;21246;-55
2021/02/14 01:37:40;;;;;;;;;15.75;13.25;;;;;-4.18;66.21;102267.53;3725331;37;21247;-55
2021/02/14 01:40:07;;;;;;;;;13.25;12.50;;;;;-4.11;65.85;102266.41;3725452;37;21276;-55
2021/02/14 01:42:36;;;;;;;;;13.75;10.00;;;;;-4.13;65.37;102266.44;3725245;38;21263;-55
2021/02/14 01:45:05;;;;;;;;;14.00;11.00;;;;;-4.11;65.83;102269.91;3725292;38;21231;-55
2021/02/14 01:47:32;;;;;;;;;18.00;14.25;;;;;-4.14;65.78;102271.78;3725338;38;21224;-54
2021/02/14 01:49:59;;;;;;;;;15.50;11.00;;;;;-4.04;66.01;102274.09;3725315;37;21231;-55
2021/02/14 01:52:25;;;;;;;;;10.00;8.50;;;;;-4.00;65.55;102267.81;3725411;38;21225;-55
2021/02/14 01:54:52;;;;;;;;;12.75;12.75;;;;;-4.04;65.89;102267.94;3725085;37;21202;-56
2021/02/14 01:57:18;;;;;;;;;14.00;11.50;;;;;-3.96;66.04;102259.78;3725425;37;21613;-56
2021/02/14 01:59:44;;;;;;;;;11.00;10.50;;;;;-4.00;65.77;102266.94;3725317;37;21557;-56
2021/02/14 02:02:11;;;;;;;;;14.75;13.00;;;;;-3.96;65.69;102271.22;3725347;38;21558;-58
2021/02/14 02:04:38;;;;;;;;;10.00;8.50;;;;;-3.97;66.11;102271.25;3725205;38;21568;-55
2021/02/14 02:07:06;;;;;;;;;13.50;11.75;;;;;-4.02;66.11;102271.41;3725393;38;21521;-57
2021/02/14 02:09:33;;;;;;;;;19.00;14.25;;;;;-4.05;66.23;102280.31;3725309;37;21605;-55
2021/02/14 02:12:01;;;;;;;;;13.75;11.00;;;;;-4.04;65.98;102279.38;3725295;38;21570;-55
2021/02/14 02:14:27;;;;;;;;;13.75;11.50;;;;;-3.93;66.10;102288.75;3725215;37;21589;-54
2021/02/14 02:16:55;;;;;;;;;17.00;11.00;;;;;-3.97;66.01;102280.06;3725408;37;21534;-56
2021/02/14 02:19:22;;;;;;;;;11.00;9.50;;;;;-4.01;66.39;102274.00;3725305;38;21472;-55
2021/02/14 02:21:48;;;;;;;;;14.00;14.00;;;;;-3.94;66.29;102271.16;3725307;37;21484;-57
2021/02/14 02:24:24;;;;;;;;;18.00;13.50;;;;;-4.02;66.58;102282.84;3725212;37;21519;-55
2021/02/14 02:26:50;;;;;;;;;11.00;10.00;;;;;-3.96;66.71;102289.72;3725215;37;21529;-55
2021/02/14 02:29:16;;;;;;;;;14.00;13.25;;;;;-3.98;66.50;102283.63;3725214;37;21472;-56
2021/02/14 02:31:43;;;;;;;;;19.25;16.25;;;;;-4.00;66.90;102298.66;3725251;38;21558;-55
2021/02/14 02:34:09;;;;;;;;;17.25;12.50;;;;;-4.03;66.94;102293.47;3725232;37;21554;-57
2021/02/14 02:36:35;;;;;;;;;14.75;13.00;;;;;-4.02;66.94;102301.34;3725195;38;21567;-56
2021/02/14 02:39:02;;;;;;;;;23.00;14.00;;;;;-4.00;67.43;102298.66;3725344;37;21545;-56
2021/02/14 02:41:28;;;;;;;;;11.00;11.00;;;;;-4.01;67.40;102294.28;3725167;37;21499;-55
2021/02/14 02:43:54;;;;;;;;;9.00;7.50;;;;;-3.94;67.28;102295.84;3725348;37;21498;-56
2021/02/14 02:46:21;;;;;;;;;11.00;11.00;;;;;-3.94;67.44;102300.25;3725208;37;21492;-56
2021/02/14 02:48:47;;;;;;;;;14.50;11.25;;;;;-3.93;67.46;102300.22;3725562;38;21519;-56
2021/02/14 02:51:13;;;;;;;;;14.75;13.00;;;;;-3.98;67.55;102311.84;3725746;37;21486;-57
2021/02/14 02:53:39;;;;;;;;;14.25;10.00;;;;;-3.99;67.72;102310.97;3725403;37;21519;-56
2021/02/14 02:56:06;;;;;;;;;14.50;11.75;;;;;-3.96;67.84;102305.59;3725870;37;21432;-54
2021/02/14 02:58:32;;;;;;;;;13.00;11.00;;;;;-3.95;68.06;102311.75;3725857;38;21529;-56
2021/02/14 03:00:58;;;;;;;;;10.75;10.25;;;;;-3.97;68.46;102305.63;3725703;38;21507;-55
2021/02/14 03:03:24;;;;;;;;;17.75;13.75;;;;;-4.00;68.17;102314.53;3725301;38;21487;-56
2021/02/14 03:05:51;;;;;;;;;14.50;12.25;;;;;-3.98;68.69;102312.72;3725196;38;21462;-56
2021/02/14 03:08:17;;;;;;;;;8.50;7.25;;;;;-3.86;68.75;102316.75;3725453;38;21469;-54
2021/02/14 03:10:43;;;;;;;;;9.00;9.00;;;;;-3.84;68.71;102310.50;3725434;38;21521;-56
2021/02/14 03:13:09;;;;;;;;;11.00;9.50;;;;;-3.84;68.66;102304.34;3725490;38;21465;-55
2021/02/14 03:15:36;;;;;;;;;10.25;5.00;;;;;-3.82;68.84;102307.81;3725570;37;21444;-55
2021/02/14 03:18:02;;;;;;;;;15.00;11.50;;;;;-3.79;68.76;102315.66;3725755;37;21417;-56
2021/02/14 03:20:29;;;;;;;;;16.00;11.25;;;;;-3.78;69.04;102315.59;3725687;38;21391;-55
2021/02/14 03:22:56;;;;;;;;;10.25;10.00;;;;;-3.83;68.69;102309.59;3725669;38;21486;-54
2021/02/14 03:25:24;;;;;;;;;13.00;11.00;;;;;-3.80;69.10;102305.97;3725461;37;21489;-55
2021/02/14 03:27:51;;;;;;;;;21.25;15.50;;;;;-3.80;69.26;102312.13;3725278;37;21439;-56
2021/02/14 03:30:27;;;;;;;;;20.75;18.25;;;;;-3.81;69.31;102310.41;3725249;38;21492;-56
2021/02/14 03:32:54;;;;;;;;;21.75;14.75;;;;;-3.85;69.26;102313.19;3725300;37;21465;-55
2021/02/14 03:35:21;;;;;;;;;14.75;12.00;;;;;-3.87;69.60;102307.09;3725314;37;21484;-56
2021/02/14 03:37:48;;;;;;;;;14.75;10.75;;;;;-3.88;70.12;102310.66;3725192;38;21480;-55
2021/02/14 03:40:15;;;;;;;;;11.75;11.25;;;;;-3.88;70.08;102308.88;3725305;37;21430;-56
2021/02/14 03:42:42;;;;;;;;;9.50;8.50;;;;;-3.83;70.17;102306.06;3725451;37;21422;-56
2021/02/14 03:45:10;;;;;;;;;19.25;16.00;;;;;-3.86;70.21;102317.63;3725160;38;21424;-56
2021/02/14 03:47:37;;;;;;;;;11.25;7.00;;;;;-3.88;70.54;102311.50;3725223;37;21466;-56
2021/02/14 03:50:04;;;;;;;;;12.25;11.00;;;;;-3.79;70.43;102307.72;3657125;37;73948;-53
2021/02/14 03:52:32;;;;;;;;;14.00;13.00;;;;;-3.74;70.59;102311.94;3725056;37;21420;-54
2021/02/14 03:54:58;;;;;;;;;13.00;12.00;;;;;-3.78;70.78;102320.03;3724904;37;21450;-55
2021/02/14 03:57:25;;;;;;;;;11.75;8.25;;;;;-3.83;70.91;102306.06;3724478;37;21449;-54
2021/02/14 03:59:52;;;;;;;;;7.00;5.00;;;;;-3.81;71.29;102315.69;3724834;38;21384;-54
2021/02/14 04:02:18;;;;;;;;;6.00;4.00;;;;;-3.76;71.22;102308.47;3725079;37;21298;-54
2021/02/14 04:04:44;;;;;;;;;15.50;13.50;;;;;-3.78;71.17;102305.00;3725042;37;21309;-53
2021/02/14 04:07:11;;;;;;;;;16.50;9.00;;;;;-3.76;71.63;102308.47;3725290;37;21371;-55
2021/02/14 04:09:37;;;;;;;;;10.00;6.75;;;;;-3.80;71.79;102304.19;3725271;37;21353;-55
2021/02/14 04:12:04;;;;;;;;;24.25;22.00;;;;;-3.78;71.87;102312.09;3725264;38;21328;-53
2021/02/14 04:14:30;;;;;;;;;31.25;28.25;;;;;-3.76;71.70;102313.78;3725295;37;21422;-54
2021/02/14 04:16:56;;;;;;;;;20.50;16.00;;;;;-3.77;71.98;102321.75;3725344;37;21398;-54
2021/02/14 04:19:23;;;;;;;;;15.50;13.00;;;;;-3.76;72.45;102326.13;3725219;38;21601;-55
2021/02/14 04:21:49;;;;;;;;;15.75;14.50;;;;;-3.76;72.23;102319.06;3725325;37;21412;-55
2021/02/14 04:24:15;;;;;;;;;13.50;11.00;;;;;-3.73;72.01;102320.75;3725332;37;21394;-55
2021/02/14 04:26:48;;;;;;;;;14.75;13.75;;;;;-3.67;72.21;102316.12;3726467;38;21401;-55
2021/02/14 04:29:18;;;;;;;;;14.75;13.25;;;;;-3.72;72.38;102323.34;3726110;37;21404;-53
2021/02/14 04:31:44;;;;;;;;;18.00;14.00;;;;;-3.68;72.42;102322.31;3725532;37;21417;-56
2021/02/14 04:34:11;;;;;;;;;13.50;11.75;;;;;-3.67;72.87;102328.47;3725440;37;21345;-55
2021/02/14 04:36:38;;;;;;;;;16.00;15.00;;;;;-3.74;72.64;102319.00;3725573;37;21416;-55
2021/02/14 04:39:07;;;;;;;;;14.75;8.00;;;;;-3.81;72.90;102320.12;3726117;38;21125;-55
2021/02/14 04:41:34;;;;;;;;;15.25;13.75;;;;;-3.78;73.69;102325.31;3726698;37;21284;-55
2021/02/14 04:44:02;;;;;;;;;17.00;14.25;;;;;-3.81;73.59;102326.28;3725785;37;21380;-55
2021/02/14 04:46:28;;;;;;;;;14.25;10.75;;;;;-3.78;73.39;102325.31;3725372;37;21363;-55
2021/02/14 04:48:54;;;;;;;;;13.25;11.00;;;;;-3.84;73.95;102315.78;3725182;37;21366;-53
2021/02/14 04:51:21;;;;;;;;;10.00;7.75;;;;;-3.80;74.00;102330.66;3725277;38;21371;-54
2021/02/14 04:53:47;;;;;;;;;14.75;13.75;;;;;-3.80;74.30;102333.28;3725321;37;21341;-54
2021/02/14 04:56:13;;;;;;;;;16.25;13.25;;;;;-3.80;74.29;102327.12;3725332;38;21378;-55
2021/02/14 04:58:39;;;;;;;;;15.00;13.75;;;;;-3.77;74.51;102332.34;3725298;37;21352;-54
2021/02/14 05:01:05;;;;;;;;;21.00;19.75;;;;;-3.77;74.52;102324.41;3725122;38;21358;-55
2021/02/14 05:03:32;;;;;;;;;17.75;14.75;;;;;-3.79;74.82;102319.16;3725209;37;21353;-55
2021/02/14 05:05:58;;;;;;;;;19.50;17.00;;;;;-3.76;75.27;102327.00;3725002;38;21366;-54
2021/02/14 05:08:24;;;;;;;;;13.50;11.25;;;;;-3.76;75.07;102319.06;3725255;38;21344;-53
2021/02/14 05:10:52;;;;;;;;;15.25;11.75;;;;;-3.77;74.93;102327.91;3725142;37;21314;-55
2021/02/14 05:13:18;;;;;;;;;25.75;17.50;;;;;-3.71;75.51;102330.38;3725195;37;21279;-55
2021/02/14 05:15:44;;;;;;;;;18.00;17.25;;;;;-3.74;75.27;102333.09;3725430;38;21352;-57
2021/02/14 05:18:11;;;;;;;;;18.75;16.50;;;;;-3.76;75.75;102334.06;3725490;38;21327;-55
2021/02/14 05:20:37;;;;;;;;;15.50;13.50;;;;;-3.80;76.02;102327.12;3725276;37;21342;-55
2021/02/14 05:23:04;;;;;;;;;14.00;11.75;;;;;-3.79;75.89;102340.31;3725436;38;21304;-54
2021/02/14 05:25:30;;;;;;;;;16.50;14.00;;;;;-3.81;76.61;102350.09;3725402;37;21321;-55
2021/02/14 05:27:56;;;;;;;;;20.25;15.50;;;;;-3.81;76.67;102352.72;3725410;38;21274;-56
2021/02/14 05:30:23;;;;;;;;;21.00;18.25;;;;;-3.78;77.23;102363.22;3725360;37;21329;-56
2021/02/14 05:32:49;;;;;;;;;17.50;16.25;;;;;-3.77;77.16;102353.50;3725259;38;21323;-55
2021/02/14 05:35:16;;;;;;;;;24.75;22.00;;;;;-3.72;77.33;102363.03;3725340;37;21314;-56
2021/02/14 05:37:42;;;;;;;;;20.75;19.50;;;;;-3.68;77.52;102362.00;3725342;37;21306;-58
2021/02/14 05:40:09;;;;;;;;;23.75;17.75;;;;;-3.68;77.42;102361.16;3725310;37;21381;-54
2021/02/14 05:42:37;;;;;;;;;21.00;14.00;;;;;-3.66;77.51;102369.91;3725189;37;21321;-54
2021/02/14 05:45:07;;;;;;;;;22.75;18.00;;;;;-3.61;77.96;102364.44;3725365;38;21242;-54
2021/02/14 05:47:34;;;;;;;;;21.75;19.25;;;;;-3.58;78.15;102373.16;3725266;37;21296;-55
2021/02/14 05:50:07;;;;;;;;;22.25;21.50;;;;;-3.58;78.03;102369.63;3725191;37;21292;-55
2021/02/14 05:52:34;;;;;;;;;19.00;17.25;;;;;-3.58;77.87;102361.69;3725464;38;21276;-56
2021/02/14 05:55:04;;;;;;;;;20.25;18.00;;;;;-3.53;77.46;102379.16;3725875;38;21300;-56
2021/02/14 05:57:32;;;;;;;;;21.25;19.25;;;;;-3.54;77.72;102376.56;3725704;37;21405;-55
2021/02/14 05:59:58;;;;;;;;;22.50;20.50;;;;;-3.54;77.96;102390.66;3725739;38;21290;-56
2021/02/14 06:02:24;;;;;;;;;20.75;18.00;;;;;-3.60;77.73;102379.41;3725879;37;21278;-54
2021/02/14 06:04:56;;;;;;;;;24.75;17.25;;;;;-3.52;77.28;102390.59;3725370;38;21293;-56
2021/02/14 06:07:23;;;;;;;;;25.25;17.75;;;;;-3.50;77.56;102391.44;3725281;38;21259;-56
2021/02/14 06:09:49;;;;;;;;;22.00;18.25;;;;;-3.50;77.10;102387.00;3725255;38;21259;-54
2021/02/14 06:12:16;;;;;;;;;23.50;20.75;;;;;-3.42;77.36;102384.97;3724823;37;21267;-56
2021/02/14 06:14:43;;;;;;;;;26.25;20.75;;;;;-3.39;77.01;102389.31;3725242;38;21272;-55
2021/02/14 06:17:10;;;;;;;;;22.25;21.00;;;;;-3.39;76.76;102391.94;3725131;38;21248;-56
2021/02/14 06:19:45;;;;;;;;;23.00;20.75;;;;;-3.38;76.71;102385.75;3725326;38;21256;-57
2021/02/14 06:22:19;;;;;;;;;19.50;15.00;;;;;-3.27;76.61;102385.41;3725349;37;21254;-56
2021/02/14 06:25:04;;;;;;;;;24.25;18.25;;;;;-3.13;76.60;102394.62;3725239;37;21261;-54
2021/02/14 06:27:42;;;;;;;;;26.50;23.75;;;;;-3.09;76.04;102396.22;3725436;38;21248;-55
2021/02/14 06:30:19;;;;;;;;;19.50;18.50;;;;;-2.98;76.00;102392.34;3725607;38;21241;-54
2021/02/14 06:32:48;;;;;;;;;20.75;17.00;;;;;-2.97;75.76;102396.72;3725378;37;21219;-55
2021/02/14 06:35:32;;;;;;;;;26.25;24.75;;;;;-3.03;75.44;102384.56;3725382;38;21245;-56
2021/02/14 06:38:12;;;;;;;;;27.50;20.00;;;;;-2.97;75.39;102389.66;3725419;38;21231;-56
2021/02/14 06:40:43;;;;;;;;;27.25;24.25;;;;;-2.90;75.53;102385.00;3725468;38;21225;-57
2021/02/14 06:43:17;;;;;;;;;31.75;24.25;;;;;-2.92;75.04;102386.84;3725366;38;21216;-55
2021/02/14 06:45:46;;;;;;;;;33.25;23.75;;;;;-2.86;75.04;102383.97;3725500;38;21214;-53
2021/02/14 06:48:16;;;;;;;;;29.00;26.75;;;;;-2.84;74.61;102385.66;3725310;38;21205;-55
2021/02/14 06:51:05;;;;;;;;;31.75;23.75;;;;;-2.97;74.33;102389.66;3725437;37;21206;-55
2021/02/14 06:53:42;;;;;;;;;26.50;20.25;;;;;-3.03;74.75;102392.50;3725186;37;21235;-53
2021/02/14 06:56:12;;;;;;;;;30.75;24.00;;;;;-3.02;74.63;102395.09;3725232;37;21223;-55
2021/02/14 06:58:43;;;;;;;;;27.25;21.00;;;;;-2.93;74.71;102404.53;3725268;38;21211;-56
2021/02/14 07:01:11;;;;;;;;;23.75;21.25;;;;;-2.88;74.47;102399.06;3725427;37;21211;-56
2021/02/14 07:03:38;;;;;;;;;27.50;23.75;;;;;-2.79;74.52;102404.06;3725077;37;21201;-55
2021/02/14 07:06:26;;;;;;;;;31.50;24.50;;;;;-2.75;74.50;102397.72;3725414;37;21218;-56
2021/02/14 07:08:56;;;;;;;;;28.00;22.25;;;;;-2.62;73.91;102408.78;3725236;37;21184;-61
2021/02/14 07:11:23;;;;;;;;;26.25;20.25;;;;;-2.50;73.83;102416.25;3725487;37;21169;-60
2021/02/14 07:18:54;;;;;;;;;23.25;18.25;;;;;-2.04;72.52;102423.41;3725564;37;21140;-56
2021/02/14 07:21:22;;;;;;;;;24.00;17.00;;;;;-2.13;70.78;102408.72;3725579;37;21179;-57
2021/02/14 07:23:49;;;;;;;;;20.50;15.50;;;;;-1.95;70.37;102414.22;3724985;38;21180;-53
2021/02/14 07:26:15;;;;;;;;;19.25;17.25;;;;;-1.77;69.65;102430.31;3725402;37;21177;-59
2021/02/14 07:28:53;;;;;;;;;25.00;17.50;;;;;-1.92;67.44;102420.28;3725428;38;21184;-59
2021/02/14 07:31:36;;;;;;;;;22.75;17.75;;;;;-2.06;67.16;102418.16;3725284;38;21250;-57
2021/02/14 07:34:11;;;;;;;;;13.25;10.00;;;;;-1.97;65.85;102439.94;3725508;37;21171;-59
2021/02/14 07:36:48;;;;;;;;;21.75;17.75;;;;;-1.97;64.19;102435.50;3725207;38;21105;-57
2021/02/14 07:39:36;;;;;;;;;7.25;5.75;;;;;-2.05;64.35;102440.22;3725424;37;21054;-60
2021/02/14 07:42:06;;;;;;;;;9.00;8.25;;;;;-2.01;64.12;102425.94;3725498;37;20921;-56
2021/02/14 07:45:10;;;;;;;;;9.75;8.00;;;;;-1.91;63.99;102421.16;3725172;38;21074;-55
2021/02/14 07:48:13;;;;;;;;;11.00;8.00;;;;;-2.01;63.34;102434.75;3725625;38;20955;-57
2021/02/14 07:51:00;;;;;;;;;8.00;8.00;;;;;-2.00;62.73;102420.56;3725690;38;20979;-56
2021/02/14 07:53:30;;;;;;;;;12.75;8.75;;;;;-1.97;61.52;102429.34;3725339;37;20914;-55
2021/02/14 07:56:01;;;;;;;;;5.00;4.75;;;;;-1.88;61.13;102432.50;3725450;37;20797;-57
2021/02/14 07:58:34;;;;;;;;;10.00;4.75;;;;;-1.75;59.88;102428.47;3725536;38;20769;-54
2021/02/14 08:01:03;;;;;;;;;8.00;8.00;;;;;-1.65;59.92;102429.00;3724952;38;20785;-56
2021/02/14 08:03:47;;;;;;;;;10.75;6.25;;;;;-1.52;59.96;102424.03;3725262;38;20778;-56
2021/02/14 08:06:27;;;;;;;;;6.25;5.00;;;;;-1.36;59.76;102417.19;3725324;37;20768;-56
2021/02/14 08:08:55;;;;;;;;;9.00;7.00;;;;;-1.52;58.72;102387.72;3725503;37;20775;-56
2021/02/14 08:11:28;;;;;;;;;6.00;1.00;;;;;-1.33;57.59;102422.38;3725523;37;20755;-55
2021/02/14 08:13:55;;;;;;;;;9.25;7.50;;;;;-1.30;58.64;102440.00;3725085;38;20741;-56
2021/02/14 08:16:22;;;;;;;;;4.00;2.00;;;;;-1.34;58.75;102434.78;3724873;38;20743;-56
2021/02/14 08:18:55;;;;;;;;;8.00;7.50;;;;;-1.10;58.78;102424.13;3725434;38;20736;-56
2021/02/14 08:21:24;;;;;;;;;12.25;9.00;;;;;-1.06;58.42;102442.53;3725609;37;20750;-55
2021/02/14 08:23:52;;;;;;;;;6.50;4.00;;;;;-1.23;59.29;102434.38;3725334;37;20763;-56
2021/02/14 08:26:19;;;;;;;;;9.25;9.00;;;;;-1.18;60.11;102435.06;3724805;37;20743;-56
2021/02/14 08:29:06;;;;;;;;;13.00;9.75;;;;;-1.16;60.73;102438.50;3725460;37;20748;-56
2021/02/14 08:31:46;;;;;;;;;13.00;12.25;;;;;-1.01;60.82;102435.19;3725585;37;20774;-56
2021/02/14 08:34:14;;;;;;;;;9.25;6.00;;;;;-1.03;61.34;102442.38;3724962;37;20773;-56
2021/02/14 08:36:42;;;;;;;;;19.50;13.75;;;;;-1.04;61.92;102450.44;3725230;38;20752;-56
2021/02/14 08:39:32;;;;;;;;;19.50;16.00;;;;;-1.07;63.15;102453.22;3725053;38;20849;-57
2021/02/14 08:42:04;;;;;;;;;27.00;17.50;;;;;-1.13;63.65;102434.88;3725584;38;20808;-56
2021/02/14 08:44:46;;;;;;;;;32.50;26.75;;;;;-1.20;64.70;102434.25;3725377;37;20807;-56
2021/02/14 08:47:23;;;;;;;;;28.75;23.00;;;;;-1.13;65.39;102453.47;3725470;38;20862;-58
2021/02/14 08:49:49;;;;;;;;;23.50;20.50;;;;;-1.26;65.57;102452.22;3725540;38;20973;-57
2021/02/14 08:52:18;;;;;;;;;31.75;26.50;;;;;-1.30;66.25;102448.81;3726002;37;20858;-55
2021/02/14 08:54:45;;;;;;;;;34.75;28.00;;;;;-1.51;66.58;102439.03;3725654;37;20850;-58
2021/02/14 08:57:19;;;;;;;;;24.25;21.50;;;;;-1.52;67.61;102450.59;3725613;37;21162;-58
2021/02/14 09:00:27;;;;;;;;;33.50;26.75;;;;;-1.44;67.81;102440.53;3725403;37;21150;-59
2021/02/14 09:03:04;;;;;;;;;40.50;29.25;;;;;-1.50;67.68;102444.28;3725227;37;21173;-57
2021/02/14 09:05:45;;;;;;;;;36.50;28.25;;;;;-1.47;68.53;102449.47;3724680;38;21184;-58
2021/02/14 09:08:22;;;;;;;;;34.50;26.00;;;;;-1.55;68.78;102443.59;3725256;37;21176;-64
2021/02/14 09:10:56;;;;;;;;;35.75;31.25;;;;;-1.58;69.56;102454.38;3724556;37;21139;-58
2021/02/14 09:13:26;;;;;;;;;30.25;26.50;;;;;-1.69;69.88;102465.41;3724752;37;21143;-58
2021/02/14 09:15:55;;;;;;;;;42.25;30.00;;;;;-1.59;70.74;102463.25;3724973;38;21131;-57
2021/02/14 09:18:23;;;;;;;;;45.50;38.00;;;;;-1.71;71.50;102456.63;3725156;38;21126;-57
2021/02/14 09:20:52;;;;;;;;;52.00;43.25;;;;;-1.69;72.00;102464.53;3725304;37;21180;-57
2021/02/14 09:23:21;;;;;;;;;35.00;25.50;;;;;-1.60;72.48;102469.50;3725232;37;21138;-58
2021/02/14 09:26:08;;;;;;;;;21.25;18.00;;;;;-1.60;73.02;102474.81;3725169;37;21152;-57
2021/02/14 09:28:39;;;;;;;;;27.75;25.25;;;;;-1.53;72.53;102478.94;3725105;37;21111;-57
2021/02/14 09:31:18;;;;;;;;;35.00;27.25;;;;;-1.45;72.83;102462.69;3725274;37;21099;-58
2021/02/14 09:34:01;;;;;;;;;26.00;17.00;;;;;-1.39;73.08;102473.09;3724886;38;21215;-57
2021/02/14 09:36:35;;;;;;;;;40.75;32.75;;;;;-1.48;73.04;102454.84;3725363;37;21123;-58
2021/02/14 09:39:22;;;;;;;;;36.75;33.75;;;;;-1.47;73.09;102469.88;3725248;37;21105;-58
2021/02/14 09:41:53;;;;;;;;;52.00;45.00;;;;;-1.42;73.82;102463.44;3725252;38;21078;-67
2021/02/14 09:44:35;;;;;;;;;16.50;15.25;;;;;-1.41;73.57;102466.97;3725280;38;21109;-62
2021/02/14 09:47:09;;;;;;;;;36.25;30.75;;;;;-1.37;73.64;102460.63;3725086;37;21061;-61
2021/02/14 09:49:43;;;;;;;;;46.75;39.75;;;;;-1.30;73.85;102464.75;3724797;37;21124;-59
2021/02/14 09:52:10;;;;;;;;;42.25;32.75;;;;;-1.16;73.06;102470.37;3724643;38;21080;-61
2021/02/14 09:54:56;;;;;;;;;45.50;37.25;;;;;-1.09;73.47;102449.75;3725130;38;21112;-61
2021/02/14 09:57:27;;;;;;;;;37.75;33.00;;;;;-1.12;73.05;102448.09;3725321;38;21101;-60
2021/02/14 09:59:58;;;;;;;;;47.50;41.00;;;;;-1.09;72.69;102457.72;3725160;38;21099;-58
2021/02/14 10:02:29;;;;;;;;;51.75;39.75;;;;;-1.19;73.04;102446.59;3725406;37;21103;-58
2021/02/14 10:04:57;;;;;;;;;37.75;33.75;;;;;-1.10;72.87;102454.19;3724996;37;21084;-59
2021/02/14 10:07:24;;;;;;;;;44.50;39.00;;;;;-1.04;72.75;102445.94;3724865;38;21064;-58
2021/02/14 10:09:51;;;;;;;;;39.25;34.75;;;;;-1.05;72.74;102454.03;3725211;37;21087;-58
2021/02/14 10:12:36;;;;;;;;;45.00;38.00;;;;;-1.10;72.92;102456.84;3724915;37;21102;-59
2021/02/14 10:15:03;;;;;;;;;54.25;40.50;;;;;-0.94;72.73;102451.75;3724378;38;21076;-58
2021/02/14 10:17:29;;;;;;;;;40.00;35.50;;;;;-0.99;72.29;102445.75;3725100;37;21065;-59
2021/02/14 10:19:55;;;;;;;;;53.25;42.25;;;;;-0.95;72.72;102457.13;3724969;38;21070;-58
2021/02/14 10:22:25;;;;;;;;;42.75;37.00;;;;;-0.89;72.61;102432.97;3724350;38;21063;-57
2021/02/14 10:24:51;;;;;;;;;45.00;35.75;;;;;-0.82;72.08;102437.09;3724601;38;21052;-58
2021/02/14 10:27:18;;;;;;;;;32.50;30.50;;;;;-0.97;72.11;102433.28;3725074;37;21060;-56
2021/02/14 10:29:45;;;;;;;;;47.50;36.75;;;;;-0.83;71.46;102430.91;3725276;37;21057;-57
2021/02/14 10:32:11;;;;;;;;;48.25;39.75;;;;;-0.77;71.30;102429.78;3725285;37;21052;-56
2021/02/14 10:34:37;;;;;;;;;43.00;33.75;;;;;-0.78;71.35;102433.37;3725118;37;21058;-56
2021/02/14 10:37:06;;;;;;;;;43.75;37.50;;;;;-0.81;71.26;102430.84;3725396;37;21025;-58
2021/02/14 10:39:35;;;;;;;;;36.00;29.75;;;;;-0.69;70.70;102427.66;3725237;38;21036;-56
2021/02/14 10:42:02;;;;;;;;;32.75;27.25;;;;;-0.82;70.50;102427.31;3725293;37;21035;-57
2021/02/14 10:44:28;;;;;;;;;43.25;33.00;;;;;-0.87;70.71;102428.44;3725197;37;21035;-57
2021/02/14 10:46:54;;;;;;;;;37.75;31.75;;;;;-0.89;70.29;102428.50;3724825;37;21026;-57
2021/02/14 10:49:22;;;;;;;;;36.75;32.75;;;;;-1.01;70.73;102437.84;3725492;37;17842;-56
2021/02/14 10:51:49;;;;;;;;;37.00;30.75;;;;;-0.94;71.26;102425.19;3725093;38;21022;-56
2021/02/14 10:54:15;;;;;;;;;20.25;20.25;;;;;-0.98;70.95;102417.41;3725140;38;21016;-55
2021/02/14 10:56:48;;;;;;;;;26.50;23.00;;;;;-0.99;71.08;102432.47;3725099;37;20989;-57
2021/02/14 10:59:14;;;;;;;;;36.50;30.50;;;;;-0.78;70.67;102430.72;3725253;37;20917;-56
2021/02/14 11:01:40;;;;;;;;;25.25;20.75;;;;;-0.80;70.06;102424.59;3725073;37;20993;-57
2021/02/14 11:06:54;;;;;;;;;37.50;30.50;;;;;-0.89;70.89;102419.69;3725230;38;20980;-57
2021/02/14 11:09:20;;;;;;;;;33.75;28.25;;;;;-0.87;70.60;102423.13;3725236;38;20988;-57
2021/02/14 11:11:47;;;;;;;;;26.50;24.50;;;;;-0.90;69.96;102424.13;3725283;37;21006;-57
2021/02/14 11:14:16;;;;;;;;;34.75;28.25;;;;;-0.89;69.49;102423.19;3725124;37;21355;-55
2021/02/14 11:16:42;;;;;;;;;37.00;31.25;;;;;-0.88;69.40;102424.91;3725280;38;20985;-57
2021/02/14 11:19:11;;;;;;;;;34.25;28.25;;;;;-0.95;69.02;102423.44;3725377;37;21000;-56
2021/02/14 11:21:37;;;;;;;;;22.25;19.75;;;;;-0.99;69.08;102416.53;3725166;38;21005;-56
2021/02/14 11:24:12;;;;;;;;;25.75;23.50;;;;;-0.96;68.83;102410.22;3725287;38;20879;-56
2021/02/14 11:26:38;;;;;;;;;19.50;16.75;;;;;-0.84;68.87;102417.69;3725333;38;20878;-55
2021/02/14 11:29:07;;;;;;;;;23.50;20.00;;;;;-0.92;68.47;102406.50;3725613;37;20848;-56
2021/02/14 11:31:33;;;;;;;;;24.00;21.50;;;;;-0.92;68.77;102407.38;3724364;38;20859;-55